sensor_id;sensor_type;location;lat;lon;timestamp;P1;durP1;ratioP1;P2;durP2;ratioP2
72261;SDS011;60173;52.112;8.648;2022-11-20T00:01:23;45.50;;;23.40;;
72261;SDS011;60173;52.112;8.648;2022-11-20T00:03:51;44.63;;;21.13;;
72261;SDS011;60173;52.112;8.648;2022-11-20T00:06:19;47.63;;;24.70;;
72261;SDS011;60173;52.112;8.648;2022-11-20T00:08:46;44.78;;;23.15;;
72261;SDS011;60173;52.112;8.648;2022-11-20T00:11:15;40.92;;;21.30;;
72261;SDS011;60173;52.112;8.648;2022-11-20T00:13:43;41.03;;;21.40;;
72261;SDS011;60173;52.112;8.648;2022-11-20T00:16:12;43.85;;;21.83;;
72261;SDS011;60173;52.112;8.648;2022-11-20T00:18:40;39.78;;;20.65;;
72261;SDS011;60173;52.112;8.648;2022-11-20T00:21:07;41.55;;;21.33;;
72261;SDS011;60173;52.112;8.648;2022-11-20T00:23:37;42.00;;;20.65;;
72261;SDS011;60173;52.112;8.648;2022-11-20T00:26:04;46.80;;;21.63;;
72261;SDS011;60173;52.112;8.648;2022-11-20T00:28:32;52.15;;;22.42;;
72261;SDS011;60173;52.112;8.648;2022-11-20T00:31:06;42.70;;;19.92;;
72261;SDS011;60173;52.112;8.648;2022-11-20T00:33:43;43.60;;;21.77;;
72261;SDS011;60173;52.112;8.648;2022-11-20T00:36:10;39.22;;;21.63;;
72261;SDS011;60173;52.112;8.648;2022-11-20T00:38:39;43.50;;;22.38;;
72261;SDS011;60173;52.112;8.648;2022-11-20T00:41:06;43.38;;;20.15;;
72261;SDS011;60173;52.112;8.648;2022-11-20T00:43:34;42.67;;;21.65;;
72261;SDS011;60173;52.112;8.648;2022-11-20T00:46:02;45.45;;;21.98;;
72261;SDS011;60173;52.112;8.648;2022-11-20T00:48:30;43.40;;;20.92;;
72261;SDS011;60173;52.112;8.648;2022-11-20T00:50:56;45.40;;;23.00;;
72261;SDS011;60173;52.112;8.648;2022-11-20T00:53:23;43.75;;;23.00;;
72261;SDS011;60173;52.112;8.648;2022-11-20T00:55:53;48.95;;;24.58;;
72261;SDS011;60173;52.112;8.648;2022-11-20T00:58:21;48.88;;;24.08;;
72261;SDS011;60173;52.112;8.648;2022-11-20T01:00:48;48.47;;;24.55;;
72261;SDS011;60173;52.112;8.648;2022-11-20T01:03:18;46.15;;;23.52;;
72261;SDS011;60173;52.112;8.648;2022-11-20T01:05:52;47.42;;;23.90;;
72261;SDS011;60173;52.112;8.648;2022-11-20T01:08:18;50.35;;;23.55;;
72261;SDS011;60173;52.112;8.648;2022-11-20T01:10:44;47.75;;;23.60;;
72261;SDS011;60173;52.112;8.648;2022-11-20T01:13:11;46.03;;;23.88;;
72261;SDS011;60173;52.112;8.648;2022-11-20T01:15:37;40.13;;;20.92;;
72261;SDS011;60173;52.112;8.648;2022-11-20T01:18:03;47.45;;;22.05;;
72261;SDS011;60173;52.112;8.648;2022-11-20T01:20:33;44.45;;;21.77;;
72261;SDS011;60173;52.112;8.648;2022-11-20T01:23:01;46.20;;;21.55;;
72261;SDS011;60173;52.112;8.648;2022-11-20T01:25:28;40.70;;;21.05;;
72261;SDS011;60173;52.112;8.648;2022-11-20T01:27:55;40.15;;;21.83;;
72261;SDS011;60173;52.112;8.648;2022-11-20T01:30:21;40.53;;;20.85;;
72261;SDS011;60173;52.112;8.648;2022-11-20T01:32:47;43.13;;;20.17;;
72261;SDS011;60173;52.112;8.648;2022-11-20T01:35:14;39.95;;;20.67;;
72261;SDS011;60173;52.112;8.648;2022-11-20T01:37:40;37.90;;;20.23;;
72261;SDS011;60173;52.112;8.648;2022-11-20T01:40:07;47.38;;;21.48;;
72261;SDS011;60173;52.112;8.648;2022-11-20T01:42:33;41.95;;;20.20;;
72261;SDS011;60173;52.112;8.648;2022-11-20T01:45:00;37.75;;;19.92;;
72261;SDS011;60173;52.112;8.648;2022-11-20T01:47:31;37.83;;;19.05;;
72261;SDS011;60173;52.112;8.648;2022-11-20T01:53:05;40.08;;;19.35;;
72261;SDS011;60173;52.112;8.648;2022-11-20T01:55:39;37.40;;;19.05;;
72261;SDS011;60173;52.112;8.648;2022-11-20T01:58:07;34.50;;;18.27;;
72261;SDS011;60173;52.112;8.648;2022-11-20T02:00:34;38.10;;;19.02;;
72261;SDS011;60173;52.112;8.648;2022-11-20T02:03:05;36.88;;;18.38;;
72261;SDS011;60173;52.112;8.648;2022-11-20T02:08:25;31.23;;;17.35;;
72261;SDS011;60173;52.112;8.648;2022-11-20T02:10:51;35.55;;;19.50;;
72261;SDS011;60173;52.112;8.648;2022-11-20T02:13:18;39.53;;;18.08;;
72261;SDS011;60173;52.112;8.648;2022-11-20T02:15:44;37.58;;;19.02;;
72261;SDS011;60173;52.112;8.648;2022-11-20T02:18:14;36.08;;;18.52;;
72261;SDS011;60173;52.112;8.648;2022-11-20T02:20:44;39.72;;;20.75;;
72261;SDS011;60173;52.112;8.648;2022-11-20T02:25:42;37.90;;;19.13;;
72261;SDS011;60173;52.112;8.648;2022-11-20T02:28:11;33.78;;;17.60;;
72261;SDS011;60173;52.112;8.648;2022-11-20T02:30:38;42.10;;;18.45;;
72261;SDS011;60173;52.112;8.648;2022-11-20T02:33:04;35.15;;;18.35;;
72261;SDS011;60173;52.112;8.648;2022-11-20T02:37:59;37.05;;;18.20;;
72261;SDS011;60173;52.112;8.648;2022-11-20T02:40:28;34.78;;;17.70;;
72261;SDS011;60173;52.112;8.648;2022-11-20T02:42:55;34.42;;;17.90;;
72261;SDS011;60173;52.112;8.648;2022-11-20T02:45:23;38.25;;;19.55;;
72261;SDS011;60173;52.112;8.648;2022-11-20T02:47:50;40.80;;;20.80;;
72261;SDS011;60173;52.112;8.648;2022-11-20T02:50:17;42.42;;;21.50;;
72261;SDS011;60173;52.112;8.648;2022-11-20T02:52:44;38.25;;;19.58;;
72261;SDS011;60173;52.112;8.648;2022-11-20T02:55:10;44.03;;;21.08;;
72261;SDS011;60173;52.112;8.648;2022-11-20T02:57:37;39.08;;;19.83;;
72261;SDS011;60173;52.112;8.648;2022-11-20T03:00:04;39.40;;;19.88;;
72261;SDS011;60173;52.112;8.648;2022-11-20T03:02:32;41.25;;;19.67;;
72261;SDS011;60173;52.112;8.648;2022-11-20T03:04:58;37.67;;;19.25;;
72261;SDS011;60173;52.112;8.648;2022-11-20T03:07:25;36.42;;;19.13;;
72261;SDS011;60173;52.112;8.648;2022-11-20T03:09:51;36.67;;;18.90;;
72261;SDS011;60173;52.112;8.648;2022-11-20T03:12:17;38.63;;;19.40;;
72261;SDS011;60173;52.112;8.648;2022-11-20T03:14:44;36.38;;;18.83;;
72261;SDS011;60173;52.112;8.648;2022-11-20T03:17:17;34.10;;;18.25;;
72261;SDS011;60173;52.112;8.648;2022-11-20T03:19:44;35.67;;;19.20;;
72261;SDS011;60173;52.112;8.648;2022-11-20T03:22:10;40.38;;;20.40;;
72261;SDS011;60173;52.112;8.648;2022-11-20T03:24:36;45.78;;;20.08;;
72261;SDS011;60173;52.112;8.648;2022-11-20T03:27:03;45.58;;;20.48;;
72261;SDS011;60173;52.112;8.648;2022-11-20T03:29:29;44.75;;;20.60;;
72261;SDS011;60173;52.112;8.648;2022-11-20T03:31:55;39.50;;;19.38;;
72261;SDS011;60173;52.112;8.648;2022-11-20T03:34:22;40.72;;;20.55;;
72261;SDS011;60173;52.112;8.648;2022-11-20T03:36:48;44.60;;;20.55;;
72261;SDS011;60173;52.112;8.648;2022-11-20T03:39:14;41.50;;;20.13;;
72261;SDS011;60173;52.112;8.648;2022-11-20T03:41:41;35.53;;;18.38;;
72261;SDS011;60173;52.112;8.648;2022-11-20T03:44:08;36.75;;;18.73;;
72261;SDS011;60173;52.112;8.648;2022-11-20T03:46:36;36.63;;;17.77;;
72261;SDS011;60173;52.112;8.648;2022-11-20T03:49:03;32.55;;;17.80;;
72261;SDS011;60173;52.112;8.648;2022-11-20T03:51:30;35.83;;;17.63;;
72261;SDS011;60173;52.112;8.648;2022-11-20T03:53:59;36.65;;;18.60;;
72261;SDS011;60173;52.112;8.648;2022-11-20T03:56:28;36.80;;;17.45;;
72261;SDS011;60173;52.112;8.648;2022-11-20T03:58:56;32.33;;;17.98;;
72261;SDS011;60173;52.112;8.648;2022-11-20T04:01:24;32.60;;;17.38;;
72261;SDS011;60173;52.112;8.648;2022-11-20T04:03:52;35.92;;;17.65;;
72261;SDS011;60173;52.112;8.648;2022-11-20T04:06:21;35.45;;;17.20;;
72261;SDS011;60173;52.112;8.648;2022-11-20T04:08:55;32.38;;;17.70;;
72261;SDS011;60173;52.112;8.648;2022-11-20T04:11:23;32.10;;;16.67;;
72261;SDS011;60173;52.112;8.648;2022-11-20T04:13:53;37.95;;;18.10;;
72261;SDS011;60173;52.112;8.648;2022-11-20T04:16:22;33.33;;;17.55;;
72261;SDS011;60173;52.112;8.648;2022-11-20T04:18:53;29.92;;;16.17;;
72261;SDS011;60173;52.112;8.648;2022-11-20T04:21:21;32.97;;;16.67;;
72261;SDS011;60173;52.112;8.648;2022-11-20T04:23:48;32.75;;;16.33;;
72261;SDS011;60173;52.112;8.648;2022-11-20T04:26:14;34.78;;;16.58;;
72261;SDS011;60173;52.112;8.648;2022-11-20T04:28:41;37.72;;;19.15;;
72261;SDS011;60173;52.112;8.648;2022-11-20T04:31:11;36.35;;;18.63;;
72261;SDS011;60173;52.112;8.648;2022-11-20T04:33:39;39.30;;;18.58;;
72261;SDS011;60173;52.112;8.648;2022-11-20T04:36:07;39.85;;;18.70;;
72261;SDS011;60173;52.112;8.648;2022-11-20T04:38:37;36.55;;;19.15;;
72261;SDS011;60173;52.112;8.648;2022-11-20T04:41:05;38.30;;;19.33;;
72261;SDS011;60173;52.112;8.648;2022-11-20T04:43:33;38.28;;;19.60;;
72261;SDS011;60173;52.112;8.648;2022-11-20T04:46:00;37.10;;;19.52;;
72261;SDS011;60173;52.112;8.648;2022-11-20T04:48:27;44.97;;;21.20;;
72261;SDS011;60173;52.112;8.648;2022-11-20T04:50:54;38.90;;;20.17;;
72261;SDS011;60173;52.112;8.648;2022-11-20T04:53:21;40.60;;;19.73;;
72261;SDS011;60173;52.112;8.648;2022-11-20T04:55:48;38.60;;;18.98;;
72261;SDS011;60173;52.112;8.648;2022-11-20T04:58:15;37.38;;;19.73;;
72261;SDS011;60173;52.112;8.648;2022-11-20T05:00:42;41.13;;;19.98;;
72261;SDS011;60173;52.112;8.648;2022-11-20T05:03:08;38.55;;;20.20;;
72261;SDS011;60173;52.112;8.648;2022-11-20T05:05:35;39.33;;;19.65;;
72261;SDS011;60173;52.112;8.648;2022-11-20T05:08:01;36.70;;;19.08;;
72261;SDS011;60173;52.112;8.648;2022-11-20T05:10:28;36.35;;;18.77;;
72261;SDS011;60173;52.112;8.648;2022-11-20T05:12:54;41.03;;;20.25;;
72261;SDS011;60173;52.112;8.648;2022-11-20T05:15:21;40.92;;;19.88;;
72261;SDS011;60173;52.112;8.648;2022-11-20T05:17:50;35.30;;;18.40;;
72261;SDS011;60173;52.112;8.648;2022-11-20T05:20:18;38.97;;;20.00;;
72261;SDS011;60173;52.112;8.648;2022-11-20T05:22:45;39.95;;;20.90;;
72261;SDS011;60173;52.112;8.648;2022-11-20T05:25:11;39.95;;;19.85;;
72261;SDS011;60173;52.112;8.648;2022-11-20T05:27:38;41.05;;;20.38;;
72261;SDS011;60173;52.112;8.648;2022-11-20T05:30:04;44.78;;;21.85;;
72261;SDS011;60173;52.112;8.648;2022-11-20T05:32:31;43.90;;;21.88;;
72261;SDS011;60173;52.112;8.648;2022-11-20T05:34:58;42.17;;;20.95;;
72261;SDS011;60173;52.112;8.648;2022-11-20T05:37:24;46.20;;;21.65;;
72261;SDS011;60173;52.112;8.648;2022-11-20T05:39:50;47.15;;;23.02;;
72261;SDS011;60173;52.112;8.648;2022-11-20T05:42:17;43.03;;;22.80;;
72261;SDS011;60173;52.112;8.648;2022-11-20T05:44:43;46.33;;;23.30;;
72261;SDS011;60173;52.112;8.648;2022-11-20T05:47:09;49.20;;;23.20;;
72261;SDS011;60173;52.112;8.648;2022-11-20T05:49:36;44.63;;;21.98;;
72261;SDS011;60173;52.112;8.648;2022-11-20T05:52:02;42.80;;;22.27;;
72261;SDS011;60173;52.112;8.648;2022-11-20T05:54:28;40.70;;;21.70;;
72261;SDS011;60173;52.112;8.648;2022-11-20T05:56:55;42.72;;;20.65;;
72261;SDS011;60173;52.112;8.648;2022-11-20T05:59:21;42.10;;;21.33;;
72261;SDS011;60173;52.112;8.648;2022-11-20T06:01:48;44.08;;;21.38;;
72261;SDS011;60173;52.112;8.648;2022-11-20T06:04:14;40.28;;;20.42;;
72261;SDS011;60173;52.112;8.648;2022-11-20T06:06:40;34.55;;;18.65;;
72261;SDS011;60173;52.112;8.648;2022-11-20T06:09:07;40.75;;;19.95;;
72261;SDS011;60173;52.112;8.648;2022-11-20T06:11:33;36.17;;;18.25;;
72261;SDS011;60173;52.112;8.648;2022-11-20T06:14:00;37.72;;;18.83;;
72261;SDS011;60173;52.112;8.648;2022-11-20T06:16:26;36.20;;;18.35;;
72261;SDS011;60173;52.112;8.648;2022-11-20T06:18:52;38.45;;;20.08;;
72261;SDS011;60173;52.112;8.648;2022-11-20T06:21:19;34.97;;;18.52;;
72261;SDS011;60173;52.112;8.648;2022-11-20T06:23:47;34.60;;;17.42;;
72261;SDS011;60173;52.112;8.648;2022-11-20T06:26:18;33.65;;;17.63;;
72261;SDS011;60173;52.112;8.648;2022-11-20T06:28:46;38.70;;;19.05;;
72261;SDS011;60173;52.112;8.648;2022-11-20T06:31:14;37.85;;;18.63;;
72261;SDS011;60173;52.112;8.648;2022-11-20T06:33:42;35.30;;;18.08;;
72261;SDS011;60173;52.112;8.648;2022-11-20T06:36:09;32.67;;;18.10;;
72261;SDS011;60173;52.112;8.648;2022-11-20T06:38:38;34.10;;;18.17;;
72261;SDS011;60173;52.112;8.648;2022-11-20T06:41:05;38.05;;;18.52;;
72261;SDS011;60173;52.112;8.648;2022-11-20T06:43:32;41.00;;;19.98;;
72261;SDS011;60173;52.112;8.648;2022-11-20T06:45:59;36.85;;;18.00;;
72261;SDS011;60173;52.112;8.648;2022-11-20T06:48:26;38.03;;;19.75;;
72261;SDS011;60173;52.112;8.648;2022-11-20T06:50:53;37.70;;;17.83;;
72261;SDS011;60173;52.112;8.648;2022-11-20T06:53:19;35.40;;;18.15;;
72261;SDS011;60173;52.112;8.648;2022-11-20T06:55:46;37.75;;;18.77;;
72261;SDS011;60173;52.112;8.648;2022-11-20T06:58:13;38.72;;;19.17;;
72261;SDS011;60173;52.112;8.648;2022-11-20T07:00:40;34.97;;;18.48;;
72261;SDS011;60173;52.112;8.648;2022-11-20T07:03:08;35.88;;;18.77;;
72261;SDS011;60173;52.112;8.648;2022-11-20T07:05:36;34.25;;;17.88;;
72261;SDS011;60173;52.112;8.648;2022-11-20T07:08:03;37.40;;;18.45;;
72261;SDS011;60173;52.112;8.648;2022-11-20T07:10:30;35.60;;;18.25;;
72261;SDS011;60173;52.112;8.648;2022-11-20T07:12:57;34.30;;;18.27;;
72261;SDS011;60173;52.112;8.648;2022-11-20T07:15:24;34.05;;;17.42;;
72261;SDS011;60173;52.112;8.648;2022-11-20T07:17:50;38.70;;;19.30;;
72261;SDS011;60173;52.112;8.648;2022-11-20T07:20:17;38.38;;;20.67;;
72261;SDS011;60173;52.112;8.648;2022-11-20T07:22:43;36.50;;;19.00;;
72261;SDS011;60173;52.112;8.648;2022-11-20T07:25:10;37.08;;;19.42;;
72261;SDS011;60173;52.112;8.648;2022-11-20T07:27:36;37.53;;;19.20;;
72261;SDS011;60173;52.112;8.648;2022-11-20T07:30:03;37.78;;;19.23;;
72261;SDS011;60173;52.112;8.648;2022-11-20T07:32:30;36.13;;;19.58;;
72261;SDS011;60173;52.112;8.648;2022-11-20T07:34:56;40.25;;;20.85;;
72261;SDS011;60173;52.112;8.648;2022-11-20T07:37:22;43.00;;;20.90;;
72261;SDS011;60173;52.112;8.648;2022-11-20T07:39:49;38.53;;;20.23;;
72261;SDS011;60173;52.112;8.648;2022-11-20T07:42:15;38.78;;;19.67;;
72261;SDS011;60173;52.112;8.648;2022-11-20T07:44:41;36.33;;;19.90;;
72261;SDS011;60173;52.112;8.648;2022-11-20T07:47:08;38.15;;;20.42;;
72261;SDS011;60173;52.112;8.648;2022-11-20T07:49:34;36.88;;;20.02;;
72261;SDS011;60173;52.112;8.648;2022-11-20T07:52:00;39.70;;;21.15;;
72261;SDS011;60173;52.112;8.648;2022-11-20T07:54:30;37.15;;;19.90;;
72261;SDS011;60173;52.112;8.648;2022-11-20T07:56:56;40.85;;;20.33;;
72261;SDS011;60173;52.112;8.648;2022-11-20T07:59:23;42.10;;;21.00;;
72261;SDS011;60173;52.112;8.648;2022-11-20T08:01:49;39.85;;;20.30;;
72261;SDS011;60173;52.112;8.648;2022-11-20T08:04:16;39.20;;;20.73;;
72261;SDS011;60173;52.112;8.648;2022-11-20T08:06:42;40.30;;;21.08;;
72261;SDS011;60173;52.112;8.648;2022-11-20T08:09:08;42.60;;;22.27;;
72261;SDS011;60173;52.112;8.648;2022-11-20T08:11:35;42.92;;;22.05;;
72261;SDS011;60173;52.112;8.648;2022-11-20T08:14:01;43.63;;;21.88;;
72261;SDS011;60173;52.112;8.648;2022-11-20T08:16:27;41.92;;;21.55;;
72261;SDS011;60173;52.112;8.648;2022-11-20T08:18:54;35.28;;;19.75;;
72261;SDS011;60173;52.112;8.648;2022-11-20T08:21:21;44.08;;;23.02;;
72261;SDS011;60173;52.112;8.648;2022-11-20T08:23:47;51.67;;;23.70;;
72261;SDS011;60173;52.112;8.648;2022-11-20T08:26:13;46.92;;;22.05;;
72261;SDS011;60173;52.112;8.648;2022-11-20T08:28:40;49.67;;;22.77;;
72261;SDS011;60173;52.112;8.648;2022-11-20T08:31:06;49.58;;;22.48;;
72261;SDS011;60173;52.112;8.648;2022-11-20T08:33:32;43.95;;;21.85;;
72261;SDS011;60173;52.112;8.648;2022-11-20T08:35:59;47.58;;;21.88;;
72261;SDS011;60173;52.112;8.648;2022-11-20T08:38:26;47.67;;;23.38;;
72261;SDS011;60173;52.112;8.648;2022-11-20T08:40:56;58.05;;;23.00;;
72261;SDS011;60173;52.112;8.648;2022-11-20T08:43:23;49.10;;;21.75;;
72261;SDS011;60173;52.112;8.648;2022-11-20T08:45:50;50.45;;;22.95;;
72261;SDS011;60173;52.112;8.648;2022-11-20T08:48:16;49.60;;;22.63;;
72261;SDS011;60173;52.112;8.648;2022-11-20T08:50:42;50.08;;;23.10;;
72261;SDS011;60173;52.112;8.648;2022-11-20T08:53:09;48.22;;;23.15;;
72261;SDS011;60173;52.112;8.648;2022-11-20T08:55:35;50.15;;;23.50;;
72261;SDS011;60173;52.112;8.648;2022-11-20T08:58:05;49.45;;;23.10;;
72261;SDS011;60173;52.112;8.648;2022-11-20T09:00:32;48.33;;;23.55;;
72261;SDS011;60173;52.112;8.648;2022-11-20T09:03:00;53.72;;;25.20;;
72261;SDS011;60173;52.112;8.648;2022-11-20T09:05:26;44.10;;;23.52;;
72261;SDS011;60173;52.112;8.648;2022-11-20T09:07:56;48.33;;;23.55;;
72261;SDS011;60173;52.112;8.648;2022-11-20T09:10:23;43.83;;;22.02;;
72261;SDS011;60173;52.112;8.648;2022-11-20T09:12:51;51.72;;;24.45;;
72261;SDS011;60173;52.112;8.648;2022-11-20T09:15:18;47.83;;;22.80;;
72261;SDS011;60173;52.112;8.648;2022-11-20T09:17:54;48.53;;;24.58;;
72261;SDS011;60173;52.112;8.648;2022-11-20T09:20:26;50.25;;;24.13;;
72261;SDS011;60173;52.112;8.648;2022-11-20T09:22:53;50.65;;;23.77;;
72261;SDS011;60173;52.112;8.648;2022-11-20T09:25:20;47.72;;;24.73;;
72261;SDS011;60173;52.112;8.648;2022-11-20T09:27:47;50.42;;;25.08;;
72261;SDS011;60173;52.112;8.648;2022-11-20T09:30:14;46.75;;;24.08;;
72261;SDS011;60173;52.112;8.648;2022-11-20T09:32:41;52.78;;;24.92;;
72261;SDS011;60173;52.112;8.648;2022-11-20T09:35:08;47.53;;;23.92;;
72261;SDS011;60173;52.112;8.648;2022-11-20T09:37:35;50.08;;;25.42;;
72261;SDS011;60173;52.112;8.648;2022-11-20T09:40:02;50.80;;;25.25;;
72261;SDS011;60173;52.112;8.648;2022-11-20T09:48:29;66.25;;;28.40;;
72261;SDS011;60173;52.112;8.648;2022-11-20T09:51:00;57.47;;;27.92;;
72261;SDS011;60173;52.112;8.648;2022-11-20T09:53:42;58.10;;;27.42;;
72261;SDS011;60173;52.112;8.648;2022-11-20T09:56:20;44.22;;;22.50;;
72261;SDS011;60173;52.112;8.648;2022-11-20T09:58:49;39.20;;;21.05;;
72261;SDS011;60173;52.112;8.648;2022-11-20T10:01:26;36.30;;;19.50;;
72261;SDS011;60173;52.112;8.648;2022-11-20T10:04:02;34.78;;;19.77;;
72261;SDS011;60173;52.112;8.648;2022-11-20T10:11:46;25.05;;;14.98;;
72261;SDS011;60173;52.112;8.648;2022-11-20T10:20:20;24.17;;;13.55;;
72261;SDS011;60173;52.112;8.648;2022-11-20T10:31:38;21.70;;;13.27;;
72261;SDS011;60173;52.112;8.648;2022-11-20T10:34:08;21.00;;;12.48;;
72261;SDS011;60173;52.112;8.648;2022-11-20T10:36:52;18.95;;;11.77;;
72261;SDS011;60173;52.112;8.648;2022-11-20T10:42:37;22.52;;;12.65;;
72261;SDS011;60173;52.112;8.648;2022-11-20T10:47:50;22.80;;;13.60;;
72261;SDS011;60173;52.112;8.648;2022-11-20T10:50:19;23.70;;;13.75;;
72261;SDS011;60173;52.112;8.648;2022-11-20T10:56:11;20.92;;;12.23;;
72261;SDS011;60173;52.112;8.648;2022-11-20T10:58:48;22.95;;;13.70;;
72261;SDS011;60173;52.112;8.648;2022-11-20T11:01:26;22.33;;;13.77;;
72261;SDS011;60173;52.112;8.648;2022-11-20T11:03:53;26.42;;;14.50;;
72261;SDS011;60173;52.112;8.648;2022-11-20T11:06:37;25.55;;;14.38;;
72261;SDS011;60173;52.112;8.648;2022-11-20T11:09:21;26.67;;;15.30;;
72261;SDS011;60173;52.112;8.648;2022-11-20T11:11:58;26.30;;;15.02;;
72261;SDS011;60173;52.112;8.648;2022-11-20T11:14:32;25.90;;;15.25;;
72261;SDS011;60173;52.112;8.648;2022-11-20T11:20:22;26.73;;;14.52;;
72261;SDS011;60173;52.112;8.648;2022-11-20T11:25:23;20.45;;;13.30;;
72261;SDS011;60173;52.112;8.648;2022-11-20T11:27:54;25.02;;;14.15;;
72261;SDS011;60173;52.112;8.648;2022-11-20T11:30:22;22.10;;;13.48;;
72261;SDS011;60173;52.112;8.648;2022-11-20T11:32:50;19.70;;;12.77;;
72261;SDS011;60173;52.112;8.648;2022-11-20T11:35:28;23.08;;;13.63;;
72261;SDS011;60173;52.112;8.648;2022-11-20T11:38:00;20.92;;;12.95;;
72261;SDS011;60173;52.112;8.648;2022-11-20T11:40:34;23.08;;;14.52;;
72261;SDS011;60173;52.112;8.648;2022-11-20T11:43:04;22.77;;;13.82;;
72261;SDS011;60173;52.112;8.648;2022-11-20T11:45:33;24.48;;;13.88;;
72261;SDS011;60173;52.112;8.648;2022-11-20T11:48:00;23.40;;;13.55;;
72261;SDS011;60173;52.112;8.648;2022-11-20T11:50:29;20.60;;;12.50;;
72261;SDS011;60173;52.112;8.648;2022-11-20T11:53:02;21.58;;;12.88;;
72261;SDS011;60173;52.112;8.648;2022-11-20T11:55:38;21.35;;;13.05;;
72261;SDS011;60173;52.112;8.648;2022-11-20T11:58:11;23.15;;;14.48;;
72261;SDS011;60173;52.112;8.648;2022-11-20T12:00:53;18.70;;;12.00;;
72261;SDS011;60173;52.112;8.648;2022-11-20T12:03:32;22.05;;;13.25;;
72261;SDS011;60173;52.112;8.648;2022-11-20T12:06:04;21.90;;;12.90;;
72261;SDS011;60173;52.112;8.648;2022-11-20T12:08:45;19.70;;;11.70;;
72261;SDS011;60173;52.112;8.648;2022-11-20T12:11:39;18.27;;;10.95;;
72261;SDS011;60173;52.112;8.648;2022-11-20T12:14:20;17.35;;;9.25;;
72261;SDS011;60173;52.112;8.648;2022-11-20T12:17:00;13.45;;;8.35;;
72261;SDS011;60173;52.112;8.648;2022-11-20T12:19:31;15.48;;;9.30;;
72261;SDS011;60173;52.112;8.648;2022-11-20T12:22:10;13.25;;;8.13;;
72261;SDS011;60173;52.112;8.648;2022-11-20T12:30:19;14.65;;;8.75;;
72261;SDS011;60173;52.112;8.648;2022-11-20T12:36:33;13.30;;;8.48;;
72261;SDS011;60173;52.112;8.648;2022-11-20T12:41:14;15.75;;;9.43;;
72261;SDS011;60173;52.112;8.648;2022-11-20T12:43:58;16.85;;;9.18;;
72261;SDS011;60173;52.112;8.648;2022-11-20T12:46:51;15.70;;;9.75;;
72261;SDS011;60173;52.112;8.648;2022-11-20T12:49:37;14.88;;;9.25;;
72261;SDS011;60173;52.112;8.648;2022-11-20T12:55:04;12.90;;;8.10;;
72261;SDS011;60173;52.112;8.648;2022-11-20T12:57:44;15.52;;;7.88;;
72261;SDS011;60173;52.112;8.648;2022-11-20T13:00:16;12.20;;;7.60;;
72261;SDS011;60173;52.112;8.648;2022-11-20T13:11:16;13.32;;;7.72;;
72261;SDS011;60173;52.112;8.648;2022-11-20T13:14:03;11.00;;;6.97;;
72261;SDS011;60173;52.112;8.648;2022-11-20T13:16:40;12.05;;;6.90;;
72261;SDS011;60173;52.112;8.648;2022-11-20T13:19:16;11.18;;;7.07;;
72261;SDS011;60173;52.112;8.648;2022-11-20T13:21:48;12.75;;;7.78;;
72261;SDS011;60173;52.112;8.648;2022-11-20T13:26:45;12.23;;;7.53;;
72261;SDS011;60173;52.112;8.648;2022-11-20T13:29:16;12.90;;;7.90;;
72261;SDS011;60173;52.112;8.648;2022-11-20T13:31:47;11.88;;;7.13;;
72261;SDS011;60173;52.112;8.648;2022-11-20T13:34:22;12.30;;;7.80;;
72261;SDS011;60173;52.112;8.648;2022-11-20T13:36:52;11.30;;;6.93;;
72261;SDS011;60173;52.112;8.648;2022-11-20T13:39:26;13.23;;;7.80;;
72261;SDS011;60173;52.112;8.648;2022-11-20T13:41:55;14.00;;;7.80;;
72261;SDS011;60173;52.112;8.648;2022-11-20T13:44:29;12.63;;;7.45;;
72261;SDS011;60173;52.112;8.648;2022-11-20T13:47:03;14.80;;;8.55;;
72261;SDS011;60173;52.112;8.648;2022-11-20T13:49:31;11.63;;;7.50;;
72261;SDS011;60173;52.112;8.648;2022-11-20T14:02:20;15.73;;;8.13;;
72261;SDS011;60173;52.112;8.648;2022-11-20T14:04:49;17.80;;;8.27;;
72261;SDS011;60173;52.112;8.648;2022-11-20T14:07:19;12.75;;;7.97;;
72261;SDS011;60173;52.112;8.648;2022-11-20T14:09:51;14.20;;;8.55;;
72261;SDS011;60173;52.112;8.648;2022-11-20T14:12:23;13.15;;;7.88;;
72261;SDS011;60173;52.112;8.648;2022-11-20T14:14:54;14.02;;;8.13;;
72261;SDS011;60173;52.112;8.648;2022-11-20T14:17:22;16.02;;;8.38;;
72261;SDS011;60173;52.112;8.648;2022-11-20T14:19:49;15.13;;;9.00;;
72261;SDS011;60173;52.112;8.648;2022-11-20T14:22:18;13.98;;;8.00;;
72261;SDS011;60173;52.112;8.648;2022-11-20T14:27:38;13.13;;;7.82;;
72261;SDS011;60173;52.112;8.648;2022-11-20T14:30:16;13.52;;;8.23;;
72261;SDS011;60173;52.112;8.648;2022-11-20T14:32:45;14.18;;;8.52;;
72261;SDS011;60173;52.112;8.648;2022-11-20T14:35:34;16.55;;;9.48;;
72261;SDS011;60173;52.112;8.648;2022-11-20T14:38:08;16.63;;;9.13;;
72261;SDS011;60173;52.112;8.648;2022-11-20T14:40:37;20.27;;;9.93;;
72261;SDS011;60173;52.112;8.648;2022-11-20T14:43:16;21.75;;;10.32;;
72261;SDS011;60173;52.112;8.648;2022-11-20T14:45:51;16.23;;;9.93;;
72261;SDS011;60173;52.112;8.648;2022-11-20T14:48:39;16.73;;;9.95;;
72261;SDS011;60173;52.112;8.648;2022-11-20T14:51:10;22.45;;;11.18;;
72261;SDS011;60173;52.112;8.648;2022-11-20T14:53:37;22.58;;;11.43;;
72261;SDS011;60173;52.112;8.648;2022-11-20T14:56:03;21.98;;;12.52;;
72261;SDS011;60173;52.112;8.648;2022-11-20T14:58:31;24.58;;;11.95;;
72261;SDS011;60173;52.112;8.648;2022-11-20T15:01:06;22.38;;;12.05;;
72261;SDS011;60173;52.112;8.648;2022-11-20T15:03:34;16.43;;;8.50;;
72261;SDS011;60173;52.112;8.648;2022-11-20T15:06:05;22.70;;;12.45;;
72261;SDS011;60173;52.112;8.648;2022-11-20T15:08:33;23.08;;;12.20;;
72261;SDS011;60173;52.112;8.648;2022-11-20T15:11:00;22.70;;;13.18;;
72261;SDS011;60173;52.112;8.648;2022-11-20T15:13:34;23.92;;;12.95;;
72261;SDS011;60173;52.112;8.648;2022-11-20T15:16:04;27.50;;;14.35;;
72261;SDS011;60173;52.112;8.648;2022-11-20T15:18:42;27.08;;;15.38;;
72261;SDS011;60173;52.112;8.648;2022-11-20T15:21:13;33.28;;;18.45;;
72261;SDS011;60173;52.112;8.648;2022-11-20T15:23:41;30.13;;;16.83;;
72261;SDS011;60173;52.112;8.648;2022-11-20T15:26:09;26.17;;;15.73;;
72261;SDS011;60173;52.112;8.648;2022-11-20T15:28:44;29.80;;;15.05;;
72261;SDS011;60173;52.112;8.648;2022-11-20T15:31:12;24.60;;;13.48;;
72261;SDS011;60173;52.112;8.648;2022-11-20T15:33:39;24.45;;;14.50;;
72261;SDS011;60173;52.112;8.648;2022-11-20T15:36:06;23.48;;;13.48;;
72261;SDS011;60173;52.112;8.648;2022-11-20T15:38:32;28.02;;;14.15;;
72261;SDS011;60173;52.112;8.648;2022-11-20T15:40:59;23.27;;;13.43;;
72261;SDS011;60173;52.112;8.648;2022-11-20T15:43:25;26.33;;;13.77;;
72261;SDS011;60173;52.112;8.648;2022-11-20T15:45:55;27.73;;;15.07;;
72261;SDS011;60173;52.112;8.648;2022-11-20T15:53:37;33.58;;;16.67;;
72261;SDS011;60173;52.112;8.648;2022-11-20T15:56:04;29.20;;;16.08;;
72261;SDS011;60173;52.112;8.648;2022-11-20T15:58:30;27.33;;;15.77;;
72261;SDS011;60173;52.112;8.648;2022-11-20T16:00:57;33.53;;;17.58;;
72261;SDS011;60173;52.112;8.648;2022-11-20T16:03:23;31.17;;;15.70;;
72261;SDS011;60173;52.112;8.648;2022-11-20T16:05:50;31.23;;;16.33;;
72261;SDS011;60173;52.112;8.648;2022-11-20T16:08:16;31.48;;;15.93;;
72261;SDS011;60173;52.112;8.648;2022-11-20T16:10:42;29.65;;;15.70;;